Hanna, Illinois
Current Conditions -  °F | °C
As of 12:52 PM on Thursday 18 Dec 2014 (Local Time) from KMLI Reporting Station
Few Clouds Few Clouds  
Wind Chill: 23°   Ceiling: Unl
Heat Index: 28°   Visibility: 10mi
Dew Point: 17°   Wind: 5mph
Humidity: 63%   Direction: 340°NNW
Pressure: 30.26"   Gusts: NA
Location:  41.4828°N, 90.1801°W
Report Text: KMLI 181852Z 34004KT 10SM FEW095 M02/M08 A3026 RMK AO2 SLP256 T10221083
Loading
Personal Weather Stations






























Interactive Weather Map New forecast layout! Learn more

10-Day Weather Forecast

Advertisements
Track Severe Weather on mobile